sensor_id;sensor_type;location;lat;lon;timestamp;pressure;altitude;pressure_sealevel;temperature;humidity
10881;BME280;5493;48.884;8.338;2023-04-25T00:01:02;99643.47;;;11.62;100.00
10881;BME280;5493;48.884;8.338;2023-04-25T00:03:29;99650.22;;;11.48;100.00
10881;BME280;5493;48.884;8.338;2023-04-25T00:05:57;99649.13;;;11.60;100.00
10881;BME280;5493;48.884;8.338;2023-04-25T00:08:24;99646.50;;;11.65;100.00
10881;BME280;5493;48.884;8.338;2023-04-25T00:10:52;99652.16;;;11.64;100.00
10881;BME280;5493;48.884;8.338;2023-04-25T00:13:18;99644.28;;;11.62;100.00
10881;BME280;5493;48.884;8.338;2023-04-25T00:15:45;99648.03;;;11.61;100.00
10881;BME280;5493;48.884;8.338;2023-04-25T00:18:13;99641.06;;;11.49;100.00
10881;BME280;5493;48.884;8.338;2023-04-25T00:20:39;99648.19;;;11.55;100.00
10881;BME280;5493;48.884;8.338;2023-04-25T00:23:11;99637.56;;;11.36;100.00
10881;BME280;5493;48.884;8.338;2023-04-25T00:25:41;99639.94;;;11.33;100.00
10881;BME280;5493;48.884;8.338;2023-04-25T00:28:09;99644.63;;;11.38;100.00
10881;BME280;5493;48.884;8.338;2023-04-25T00:30:35;99653.34;;;11.28;100.00
10881;BME280;5493;48.884;8.338;2023-04-25T00:33:02;99645.97;;;11.23;100.00
10881;BME280;5493;48.884;8.338;2023-04-25T00:35:29;99644.78;;;11.31;100.00
10881;BME280;5493;48.884;8.338;2023-04-25T00:37:55;99645.78;;;11.42;100.00
10881;BME280;5493;48.884;8.338;2023-04-25T00:40:22;99641.34;;;11.35;100.00
10881;BME280;5493;48.884;8.338;2023-04-25T00:42:49;99638.41;;;11.37;100.00
10881;BME280;5493;48.884;8.338;2023-04-25T00:45:17;99637.16;;;11.28;100.00
10881;BME280;5493;48.884;8.338;2023-04-25T00:47:44;99637.25;;;11.33;100.00
10881;BME280;5493;48.884;8.338;2023-04-25T00:50:11;99635.66;;;11.49;100.00
10881;BME280;5493;48.884;8.338;2023-04-25T00:52:40;99632.00;;;11.55;100.00
10881;BME280;5493;48.884;8.338;2023-04-25T00:55:07;99635.66;;;11.49;100.00
10881;BME280;5493;48.884;8.338;2023-04-25T00:57:34;99632.44;;;11.35;100.00
10881;BME280;5493;48.884;8.338;2023-04-25T01:00:01;99635.78;;;11.14;100.00
10881;BME280;5493;48.884;8.338;2023-04-25T01:02:30;99629.41;;;11.31;100.00
10881;BME280;5493;48.884;8.338;2023-04-25T01:04:57;99626.47;;;11.21;100.00
10881;BME280;5493;48.884;8.338;2023-04-25T01:07:24;99623.84;;;11.38;100.00
10881;BME280;5493;48.884;8.338;2023-04-25T01:09:51;99633.88;;;11.54;100.00
10881;BME280;5493;48.884;8.338;2023-04-25T01:12:18;99611.84;;;11.46;100.00
10881;BME280;5493;48.884;8.338;2023-04-25T01:14:45;99618.97;;;11.52;100.00
10881;BME280;5493;48.884;8.338;2023-04-25T01:17:12;99623.13;;;11.43;100.00
10881;BME280;5493;48.884;8.338;2023-04-25T01:19:41;99620.91;;;11.40;100.00
10881;BME280;5493;48.884;8.338;2023-04-25T01:22:09;99624.19;;;11.42;100.00
10881;BME280;5493;48.884;8.338;2023-04-25T01:24:37;99626.28;;;11.40;100.00
10881;BME280;5493;48.884;8.338;2023-04-25T01:27:04;99624.38;;;11.52;100.00
10881;BME280;5493;48.884;8.338;2023-04-25T01:29:31;99624.03;;;11.48;100.00
10881;BME280;5493;48.884;8.338;2023-04-25T01:31:58;99622.59;;;11.29;100.00
10881;BME280;5493;48.884;8.338;2023-04-25T01:34:25;99621.88;;;11.33;100.00
10881;BME280;5493;48.884;8.338;2023-04-25T01:36:52;99613.63;;;11.40;100.00
10881;BME280;5493;48.884;8.338;2023-04-25T01:39:20;99614.50;;;11.29;100.00
10881;BME280;5493;48.884;8.338;2023-04-25T01:41:47;99621.38;;;11.36;100.00
10881;BME280;5493;48.884;8.338;2023-04-25T01:44:14;99612.63;;;11.29;100.00
10881;BME280;5493;48.884;8.338;2023-04-25T01:46:41;99623.22;;;11.19;100.00
10881;BME280;5493;48.884;8.338;2023-04-25T01:49:07;99614.75;;;11.27;100.00
10881;BME280;5493;48.884;8.338;2023-04-25T01:51:34;99618.00;;;11.29;100.00
10881;BME280;5493;48.884;8.338;2023-04-25T01:54:01;99616.28;;;11.23;100.00
10881;BME280;5493;48.884;8.338;2023-04-25T01:56:31;99610.19;;;11.28;100.00
10881;BME280;5493;48.884;8.338;2023-04-25T01:58:58;99612.44;;;11.08;100.00
10881;BME280;5493;48.884;8.338;2023-04-25T02:01:25;99610.44;;;11.15;100.00
10881;BME280;5493;48.884;8.338;2023-04-25T02:03:51;99616.84;;;10.85;100.00
10881;BME280;5493;48.884;8.338;2023-04-25T02:06:18;99616.56;;;11.10;100.00
10881;BME280;5493;48.884;8.338;2023-04-25T02:08:44;99623.34;;;11.13;100.00
10881;BME280;5493;48.884;8.338;2023-04-25T02:11:10;99622.13;;;10.92;100.00
10881;BME280;5493;48.884;8.338;2023-04-25T02:13:38;99623.03;;;10.98;100.00
10881;BME280;5493;48.884;8.338;2023-04-25T02:16:05;99629.25;;;10.98;100.00
10881;BME280;5493;48.884;8.338;2023-04-25T02:18:32;99624.72;;;10.87;100.00
10881;BME280;5493;48.884;8.338;2023-04-25T02:20:59;99620.91;;;11.00;100.00
10881;BME280;5493;48.884;8.338;2023-04-25T02:23:26;99623.34;;;11.13;100.00
10881;BME280;5493;48.884;8.338;2023-04-25T02:25:52;99622.56;;;11.01;100.00
10881;BME280;5493;48.884;8.338;2023-04-25T02:28:20;99622.00;;;10.87;100.00
10881;BME280;5493;48.884;8.338;2023-04-25T02:30:48;99617.63;;;11.09;100.00
10881;BME280;5493;48.884;8.338;2023-04-25T02:33:14;99618.13;;;10.95;100.00
10881;BME280;5493;48.884;8.338;2023-04-25T02:35:42;99609.41;;;11.04;100.00
10881;BME280;5493;48.884;8.338;2023-04-25T02:38:08;99613.88;;;11.10;100.00
10881;BME280;5493;48.884;8.338;2023-04-25T02:40:35;99604.31;;;10.91;100.00
10881;BME280;5493;48.884;8.338;2023-04-25T02:43:01;99612.09;;;11.04;100.00
10881;BME280;5493;48.884;8.338;2023-04-25T02:45:28;99610.53;;;10.80;100.00
10881;BME280;5493;48.884;8.338;2023-04-25T02:47:55;99597.69;;;11.10;100.00
10881;BME280;5493;48.884;8.338;2023-04-25T02:50:22;99596.59;;;11.11;100.00
10881;BME280;5493;48.884;8.338;2023-04-25T02:52:49;99599.59;;;10.98;100.00
10881;BME280;5493;48.884;8.338;2023-04-25T02:55:15;99598.75;;;10.98;100.00
10881;BME280;5493;48.884;8.338;2023-04-25T02:57:42;99591.16;;;10.95;100.00
10881;BME280;5493;48.884;8.338;2023-04-25T03:00:09;99591.72;;;10.97;100.00
10881;BME280;5493;48.884;8.338;2023-04-25T03:02:39;99591.56;;;11.15;100.00
10881;BME280;5493;48.884;8.338;2023-04-25T03:05:07;99591.03;;;11.29;100.00
10881;BME280;5493;48.884;8.338;2023-04-25T03:07:34;99583.09;;;11.23;100.00
10881;BME280;5493;48.884;8.338;2023-04-25T03:10:00;99584.56;;;11.30;100.00
10881;BME280;5493;48.884;8.338;2023-04-25T03:12:27;99584.03;;;11.45;100.00
10881;BME280;5493;48.884;8.338;2023-04-25T03:14:53;99578.78;;;11.39;100.00
10881;BME280;5493;48.884;8.338;2023-04-25T03:17:20;99578.66;;;11.17;100.00
10881;BME280;5493;48.884;8.338;2023-04-25T03:19:46;99579.47;;;11.17;100.00
10881;BME280;5493;48.884;8.338;2023-04-25T03:22:14;99577.50;;;11.13;100.00
10881;BME280;5493;48.884;8.338;2023-04-25T03:24:41;99583.19;;;11.28;100.00
10881;BME280;5493;48.884;8.338;2023-04-25T03:27:07;99584.47;;;11.25;100.00
10881;BME280;5493;48.884;8.338;2023-04-25T03:29:33;99569.59;;;10.95;100.00
10881;BME280;5493;48.884;8.338;2023-04-25T03:32:00;99573.00;;;11.18;100.00
10881;BME280;5493;48.884;8.338;2023-04-25T03:34:27;99571.09;;;11.30;100.00
10881;BME280;5493;48.884;8.338;2023-04-25T03:36:53;99575.97;;;11.17;100.00
10881;BME280;5493;48.884;8.338;2023-04-25T03:39:21;99565.88;;;11.12;100.00
10881;BME280;5493;48.884;8.338;2023-04-25T03:41:48;99572.09;;;11.13;100.00
10881;BME280;5493;48.884;8.338;2023-04-25T03:44:14;99575.47;;;11.20;100.00
10881;BME280;5493;48.884;8.338;2023-04-25T03:46:41;99570.75;;;10.99;100.00
10881;BME280;5493;48.884;8.338;2023-04-25T03:49:07;99578.06;;;11.15;100.00
10881;BME280;5493;48.884;8.338;2023-04-25T03:51:34;99579.66;;;11.27;100.00
10881;BME280;5493;48.884;8.338;2023-04-25T03:54:00;99582.13;;;10.89;100.00
10881;BME280;5493;48.884;8.338;2023-04-25T03:56:28;99587.06;;;10.92;100.00
10881;BME280;5493;48.884;8.338;2023-04-25T03:58:54;99588.66;;;11.05;100.00
10881;BME280;5493;48.884;8.338;2023-04-25T04:01:21;99583.97;;;11.00;100.00
10881;BME280;5493;48.884;8.338;2023-04-25T04:03:47;99579.19;;;11.02;100.00
10881;BME280;5493;48.884;8.338;2023-04-25T04:06:14;99584.66;;;11.07;100.00
10881;BME280;5493;48.884;8.338;2023-04-25T04:08:41;99581.97;;;11.07;100.00
10881;BME280;5493;48.884;8.338;2023-04-25T04:11:07;99582.38;;;11.27;100.00
10881;BME280;5493;48.884;8.338;2023-04-25T04:13:35;99576.78;;;11.17;100.00
10881;BME280;5493;48.884;8.338;2023-04-25T04:16:02;99580.28;;;11.18;100.00
10881;BME280;5493;48.884;8.338;2023-04-25T04:18:29;99581.78;;;11.25;100.00
10881;BME280;5493;48.884;8.338;2023-04-25T04:20:55;99572.72;;;11.31;100.00
10881;BME280;5493;48.884;8.338;2023-04-25T04:23:23;99572.63;;;11.26;100.00
10881;BME280;5493;48.884;8.338;2023-04-25T04:25:49;99577.16;;;11.38;100.00
10881;BME280;5493;48.884;8.338;2023-04-25T04:28:17;99577.97;;;11.38;100.00
10881;BME280;5493;48.884;8.338;2023-04-25T04:30:45;99574.53;;;11.14;100.00
10881;BME280;5493;48.884;8.338;2023-04-25T04:33:12;99580.59;;;10.93;100.00
10881;BME280;5493;48.884;8.338;2023-04-25T04:35:38;99578.19;;;10.68;100.00
10881;BME280;5493;48.884;8.338;2023-04-25T04:38:05;99584.91;;;10.54;100.00
10881;BME280;5493;48.884;8.338;2023-04-25T04:40:31;99587.81;;;10.64;100.00
10881;BME280;5493;48.884;8.338;2023-04-25T04:42:58;99590.41;;;10.59;100.00
10881;BME280;5493;48.884;8.338;2023-04-25T04:45:24;99585.94;;;10.65;100.00
10881;BME280;5493;48.884;8.338;2023-04-25T04:47:54;99585.84;;;10.60;100.00
10881;BME280;5493;48.884;8.338;2023-04-25T04:50:21;99590.78;;;10.51;100.00
10881;BME280;5493;48.884;8.338;2023-04-25T04:52:47;99596.25;;;10.56;100.00
10881;BME280;5493;48.884;8.338;2023-04-25T04:55:14;99600.47;;;10.75;100.00
10881;BME280;5493;48.884;8.338;2023-04-25T04:57:40;99606.78;;;10.81;100.00
10881;BME280;5493;48.884;8.338;2023-04-25T05:00:08;99600.56;;;10.80;100.00
10881;BME280;5493;48.884;8.338;2023-04-25T05:02:36;99607.53;;;11.05;100.00
10881;BME280;5493;48.884;8.338;2023-04-25T05:05:05;99599.06;;;11.13;100.00
10881;BME280;5493;48.884;8.338;2023-04-25T05:07:31;99601.06;;;11.17;100.00
10881;BME280;5493;48.884;8.338;2023-04-25T05:09:58;99603.50;;;11.19;100.00
10881;BME280;5493;48.884;8.338;2023-04-25T05:12:24;99609.09;;;11.29;100.00
10881;BME280;5493;48.884;8.338;2023-04-25T05:14:51;99612.41;;;11.19;100.00
10881;BME280;5493;48.884;8.338;2023-04-25T05:17:17;99609.16;;;11.17;100.00
10881;BME280;5493;48.884;8.338;2023-04-25T05:19:43;99618.28;;;11.28;100.00
10881;BME280;5493;48.884;8.338;2023-04-25T05:22:11;99604.66;;;11.23;100.00
10881;BME280;5493;48.884;8.338;2023-04-25T05:24:38;99614.09;;;11.09;100.00
10881;BME280;5493;48.884;8.338;2023-04-25T05:27:04;99615.81;;;11.26;100.00
10881;BME280;5493;48.884;8.338;2023-04-25T05:29:31;99612.53;;;11.24;100.00
10881;BME280;5493;48.884;8.338;2023-04-25T05:31:58;99609.69;;;11.31;100.00
10881;BME280;5493;48.884;8.338;2023-04-25T05:34:24;99610.66;;;11.25;100.00
10881;BME280;5493;48.884;8.338;2023-04-25T05:36:51;99605.97;;;11.20;100.00
10881;BME280;5493;48.884;8.338;2023-04-25T05:39:18;99609.66;;;11.03;100.00
10881;BME280;5493;48.884;8.338;2023-04-25T05:41:45;99614.59;;;10.94;100.00
10881;BME280;5493;48.884;8.338;2023-04-25T05:44:12;99623.09;;;11.14;100.00
10881;BME280;5493;48.884;8.338;2023-04-25T05:46:38;99621.66;;;10.95;100.00
10881;BME280;5493;48.884;8.338;2023-04-25T05:49:05;99614.38;;;10.96;100.00
10881;BME280;5493;48.884;8.338;2023-04-25T05:51:32;99623.19;;;10.91;100.00
10881;BME280;5493;48.884;8.338;2023-04-25T05:53:58;99620.38;;;10.74;100.00
10881;BME280;5493;48.884;8.338;2023-04-25T05:56:26;99633.97;;;10.79;100.00
10881;BME280;5493;48.884;8.338;2023-04-25T05:58:53;99628.72;;;10.50;100.00
10881;BME280;5493;48.884;8.338;2023-04-25T06:01:20;99625.47;;;10.48;100.00
10881;BME280;5493;48.884;8.338;2023-04-25T06:03:46;99632.72;;;10.59;100.00
10881;BME280;5493;48.884;8.338;2023-04-25T06:06:13;99634.00;;;10.56;100.00
10881;BME280;5493;48.884;8.338;2023-04-25T06:08:40;99631.88;;;10.35;100.00
10881;BME280;5493;48.884;8.338;2023-04-25T06:11:06;99636.25;;;10.48;100.00
10881;BME280;5493;48.884;8.338;2023-04-25T06:13:40;99631.06;;;10.46;100.00
10881;BME280;5493;48.884;8.338;2023-04-25T06:16:06;99630.84;;;10.59;100.00
10881;BME280;5493;48.884;8.338;2023-04-25T06:18:33;99635.97;;;10.61;100.00
10881;BME280;5493;48.884;8.338;2023-04-25T06:20:59;99635.41;;;10.59;100.00
10881;BME280;5493;48.884;8.338;2023-04-25T06:23:26;99636.59;;;10.51;100.00
10881;BME280;5493;48.884;8.338;2023-04-25T06:25:53;99644.19;;;10.54;100.00
10881;BME280;5493;48.884;8.338;2023-04-25T06:28:19;99647.34;;;10.28;100.00
10881;BME280;5493;48.884;8.338;2023-04-25T06:30:48;99645.47;;;10.28;100.00
10881;BME280;5493;48.884;8.338;2023-04-25T06:33:15;99646.66;;;10.32;100.00
10881;BME280;5493;48.884;8.338;2023-04-25T06:35:41;99645.25;;;10.18;100.00
10881;BME280;5493;48.884;8.338;2023-04-25T06:38:08;99650.41;;;10.20;100.00
10881;BME280;5493;48.884;8.338;2023-04-25T06:40:35;99660.34;;;10.31;100.00
10881;BME280;5493;48.884;8.338;2023-04-25T06:43:01;99660.94;;;10.21;100.00
10881;BME280;5493;48.884;8.338;2023-04-25T06:45:28;99656.38;;;10.33;100.00
10881;BME280;5493;48.884;8.338;2023-04-25T06:47:55;99658.50;;;10.43;100.00
10881;BME280;5493;48.884;8.338;2023-04-25T06:50:22;99665.03;;;10.35;100.00
10881;BME280;5493;48.884;8.338;2023-04-25T06:52:48;99663.88;;;10.31;100.00
10881;BME280;5493;48.884;8.338;2023-04-25T06:55:15;99661.78;;;10.33;100.00
10881;BME280;5493;48.884;8.338;2023-04-25T06:57:41;99666.34;;;10.33;100.00
10881;BME280;5493;48.884;8.338;2023-04-25T07:00:09;99669.16;;;10.38;100.00
10881;BME280;5493;48.884;8.338;2023-04-25T07:02:36;99669.38;;;10.25;100.00
10881;BME280;5493;48.884;8.338;2023-04-25T07:05:04;99677.34;;;10.31;100.00
10881;BME280;5493;48.884;8.338;2023-04-25T07:07:30;99672.91;;;10.37;100.00
10881;BME280;5493;48.884;8.338;2023-04-25T07:09:57;99677.72;;;10.47;100.00
10881;BME280;5493;48.884;8.338;2023-04-25T07:12:23;99680.72;;;10.15;100.00
10881;BME280;5493;48.884;8.338;2023-04-25T07:14:50;99674.34;;;10.10;100.00
10881;BME280;5493;48.884;8.338;2023-04-25T07:17:16;99681.50;;;10.04;100.00
10881;BME280;5493;48.884;8.338;2023-04-25T07:19:43;99689.00;;;10.14;100.00
10881;BME280;5493;48.884;8.338;2023-04-25T07:22:11;99691.59;;;10.20;100.00
10881;BME280;5493;48.884;8.338;2023-04-25T07:24:37;99689.78;;;9.91;100.00
10881;BME280;5493;48.884;8.338;2023-04-25T07:27:04;99698.22;;;10.06;100.00
10881;BME280;5493;48.884;8.338;2023-04-25T07:29:31;99700.56;;;10.03;100.00
10881;BME280;5493;48.884;8.338;2023-04-25T07:31:57;99712.94;;;9.92;100.00
10881;BME280;5493;48.884;8.338;2023-04-25T07:34:24;99702.47;;;9.72;100.00
10881;BME280;5493;48.884;8.338;2023-04-25T07:36:50;99714.53;;;9.81;100.00
10881;BME280;5493;48.884;8.338;2023-04-25T07:39:19;99705.25;;;10.07;100.00
10881;BME280;5493;48.884;8.338;2023-04-25T07:41:45;99708.75;;;10.26;100.00
10881;BME280;5493;48.884;8.338;2023-04-25T07:44:12;99718.56;;;9.91;100.00
10881;BME280;5493;48.884;8.338;2023-04-25T07:46:38;99718.16;;;9.75;100.00
10881;BME280;5493;48.884;8.338;2023-04-25T07:49:05;99722.53;;;9.88;100.00
10881;BME280;5493;48.884;8.338;2023-04-25T07:51:31;99730.16;;;9.91;100.00
10881;BME280;5493;48.884;8.338;2023-04-25T07:53:58;99725.38;;;9.45;100.00
10881;BME280;5493;48.884;8.338;2023-04-25T07:56:26;99732.09;;;9.84;100.00
10881;BME280;5493;48.884;8.338;2023-04-25T07:58:52;99739.56;;;9.52;100.00
10881;BME280;5493;48.884;8.338;2023-04-25T08:01:19;99746.84;;;9.81;100.00
10881;BME280;5493;48.884;8.338;2023-04-25T08:03:46;99745.13;;;9.87;100.00
10881;BME280;5493;48.884;8.338;2023-04-25T08:06:13;99754.34;;;9.79;100.00
10881;BME280;5493;48.884;8.338;2023-04-25T08:08:39;99751.81;;;9.66;100.00
10881;BME280;5493;48.884;8.338;2023-04-25T08:11:06;99756.78;;;9.81;100.00
10881;BME280;5493;48.884;8.338;2023-04-25T08:13:33;99765.13;;;9.79;100.00
10881;BME280;5493;48.884;8.338;2023-04-25T08:16:00;99764.84;;;9.69;100.00
10881;BME280;5493;48.884;8.338;2023-04-25T08:18:26;99781.19;;;9.68;100.00
10881;BME280;5493;48.884;8.338;2023-04-25T08:20:53;99781.75;;;9.58;100.00
10881;BME280;5493;48.884;8.338;2023-04-25T08:23:19;99778.97;;;9.65;100.00
10881;BME280;5493;48.884;8.338;2023-04-25T08:25:46;99782.88;;;9.80;100.00
10881;BME280;5493;48.884;8.338;2023-04-25T08:28:12;99789.34;;;9.79;100.00
10881;BME280;5493;48.884;8.338;2023-04-25T08:30:40;99797.94;;;9.70;100.00
10881;BME280;5493;48.884;8.338;2023-04-25T08:33:06;99802.72;;;9.68;100.00
10881;BME280;5493;48.884;8.338;2023-04-25T08:35:33;99801.53;;;9.82;100.00
10881;BME280;5493;48.884;8.338;2023-04-25T08:37:59;99804.28;;;9.94;100.00
10881;BME280;5493;48.884;8.338;2023-04-25T08:40:27;99806.88;;;10.00;100.00
10881;BME280;5493;48.884;8.338;2023-04-25T08:42:56;99810.63;;;9.81;100.00
10881;BME280;5493;48.884;8.338;2023-04-25T08:45:24;99815.88;;;9.94;100.00
10881;BME280;5493;48.884;8.338;2023-04-25T08:47:54;99817.97;;;9.74;100.00
10881;BME280;5493;48.884;8.338;2023-04-25T08:50:23;99828.97;;;9.91;100.00
10881;BME280;5493;48.884;8.338;2023-04-25T08:52:53;99830.59;;;9.92;100.00
10881;BME280;5493;48.884;8.338;2023-04-25T08:55:21;99831.72;;;9.84;100.00
10881;BME280;5493;48.884;8.338;2023-04-25T08:57:48;99844.81;;;9.80;100.00
10881;BME280;5493;48.884;8.338;2023-04-25T09:00:16;99839.22;;;9.82;100.00
10881;BME280;5493;48.884;8.338;2023-04-25T09:02:43;99842.13;;;9.80;100.00
10881;BME280;5493;48.884;8.338;2023-04-25T09:05:13;99834.38;;;9.72;100.00
10881;BME280;5493;48.884;8.338;2023-04-25T09:07:39;99843.94;;;9.86;100.00
10881;BME280;5493;48.884;8.338;2023-04-25T09:10:07;99855.16;;;9.83;100.00
10881;BME280;5493;48.884;8.338;2023-04-25T09:12:35;99859.56;;;9.78;100.00
10881;BME280;5493;48.884;8.338;2023-04-25T09:15:04;99857.47;;;9.62;100.00
10881;BME280;5493;48.884;8.338;2023-04-25T09:17:31;99863.22;;;9.65;100.00
10881;BME280;5493;48.884;8.338;2023-04-25T09:20:08;99864.72;;;9.79;100.00
10881;BME280;5493;48.884;8.338;2023-04-25T09:22:37;99875.78;;;9.89;100.00
10881;BME280;5493;48.884;8.338;2023-04-25T09:25:08;99871.34;;;9.77;100.00
10881;BME280;5493;48.884;8.338;2023-04-25T09:27:34;99874.38;;;9.69;100.00
10881;BME280;5493;48.884;8.338;2023-04-25T09:30:01;99871.06;;;9.85;100.00
10881;BME280;5493;48.884;8.338;2023-04-25T09:32:29;99879.31;;;9.90;100.00
10881;BME280;5493;48.884;8.338;2023-04-25T09:34:57;99875.63;;;10.03;100.00
10881;BME280;5493;48.884;8.338;2023-04-25T09:37:24;99889.41;;;10.13;100.00
10881;BME280;5493;48.884;8.338;2023-04-25T09:39:54;99890.91;;;9.91;100.00
10881;BME280;5493;48.884;8.338;2023-04-25T09:42:22;99894.91;;;9.81;100.00
10881;BME280;5493;48.884;8.338;2023-04-25T09:44:51;99897.84;;;9.98;100.00
10881;BME280;5493;48.884;8.338;2023-04-25T09:47:18;99897.97;;;10.03;100.00
10881;BME280;5493;48.884;8.338;2023-04-25T09:49:46;99899.19;;;9.89;100.00
10881;BME280;5493;48.884;8.338;2023-04-25T09:52:14;99907.09;;;10.02;100.00
10881;BME280;5493;48.884;8.338;2023-04-25T09:54:43;99915.56;;;9.69;100.00
10881;BME280;5493;48.884;8.338;2023-04-25T09:57:12;99904.25;;;9.61;100.00
10881;BME280;5493;48.884;8.338;2023-04-25T09:59:44;99906.97;;;9.97;100.00
10881;BME280;5493;48.884;8.338;2023-04-25T10:02:13;99912.44;;;10.09;100.00
10881;BME280;5493;48.884;8.338;2023-04-25T10:04:41;99918.06;;;10.25;100.00
10881;BME280;5493;48.884;8.338;2023-04-25T10:07:08;99915.50;;;9.94;100.00
10881;BME280;5493;48.884;8.338;2023-04-25T10:09:37;99919.19;;;10.18;100.00
10881;BME280;5493;48.884;8.338;2023-04-25T10:12:05;99928.66;;;10.02;100.00
10881;BME280;5493;48.884;8.338;2023-04-25T10:14:33;99927.03;;;9.83;100.00
10881;BME280;5493;48.884;8.338;2023-04-25T10:17:00;99928.06;;;9.82;100.00
10881;BME280;5493;48.884;8.338;2023-04-25T10:19:27;99928.72;;;9.96;100.00
10881;BME280;5493;48.884;8.338;2023-04-25T10:22:01;99930.41;;;10.15;100.00
10881;BME280;5493;48.884;8.338;2023-04-25T10:24:28;99933.28;;;10.20;100.00
10881;BME280;5493;48.884;8.338;2023-04-25T10:26:55;99935.69;;;10.03;100.00
10881;BME280;5493;48.884;8.338;2023-04-25T10:29:23;99943.09;;;10.08;100.00
10881;BME280;5493;48.884;8.338;2023-04-25T10:31:52;99942.28;;;10.07;100.00
10881;BME280;5493;48.884;8.338;2023-04-25T10:34:19;99946.94;;;10.18;100.00
10881;BME280;5493;48.884;8.338;2023-04-25T10:36:50;99949.28;;;10.15;100.00
10881;BME280;5493;48.884;8.338;2023-04-25T10:39:22;99953.38;;;10.17;100.00
10881;BME280;5493;48.884;8.338;2023-04-25T10:41:53;99957.09;;;9.98;100.00
10881;BME280;5493;48.884;8.338;2023-04-25T10:44:21;99962.81;;;9.65;100.00
10881;BME280;5493;48.884;8.338;2023-04-25T10:46:48;99974.97;;;9.50;100.00
10881;BME280;5493;48.884;8.338;2023-04-25T10:49:30;99982.50;;;9.10;100.00
10881;BME280;5493;48.884;8.338;2023-04-25T10:52:25;99985.69;;;8.94;100.00
10881;BME280;5493;48.884;8.338;2023-04-25T10:54:54;99987.50;;;9.06;100.00
10881;BME280;5493;48.884;8.338;2023-04-25T10:57:41;99985.25;;;9.03;100.00
10881;BME280;5493;48.884;8.338;2023-04-25T11:00:11;99991.06;;;9.00;100.00
10881;BME280;5493;48.884;8.338;2023-04-25T11:02:42;99987.44;;;9.13;100.00
10881;BME280;5493;48.884;8.338;2023-04-25T11:05:18;99987.25;;;9.14;100.00
10881;BME280;5493;48.884;8.338;2023-04-25T11:07:50;99981.69;;;9.09;100.00
10881;BME280;5493;48.884;8.338;2023-04-25T11:10:17;99987.69;;;9.05;100.00
10881;BME280;5493;48.884;8.338;2023-04-25T11:12:44;99984.41;;;9.03;100.00
10881;BME280;5493;48.884;8.338;2023-04-25T11:15:11;99983.19;;;9.30;100.00
10881;BME280;5493;48.884;8.338;2023-04-25T11:17:38;99987.91;;;9.34;100.00
10881;BME280;5493;48.884;8.338;2023-04-25T11:20:07;99986.75;;;9.49;100.00
10881;BME280;5493;48.884;8.338;2023-04-25T11:22:38;99987.06;;;9.59;100.00
10881;BME280;5493;48.884;8.338;2023-04-25T11:25:07;99987.66;;;9.85;100.00
10881;BME280;5493;48.884;8.338;2023-04-25T11:27:37;99991.84;;;9.81;100.00
10881;BME280;5493;48.884;8.338;2023-04-25T11:30:12;99986.34;;;9.95;100.00
10881;BME280;5493;48.884;8.338;2023-04-25T11:32:39;99988.81;;;9.96;100.00
10881;BME280;5493;48.884;8.338;2023-04-25T11:35:07;99983.72;;;10.06;100.00
10881;BME280;5493;48.884;8.338;2023-04-25T11:37:33;99981.34;;;9.98;100.00
10881;BME280;5493;48.884;8.338;2023-04-25T11:40:02;99984.47;;;9.95;100.00
10881;BME280;5493;48.884;8.338;2023-04-25T11:42:30;99992.97;;;10.17;100.00
10881;BME280;5493;48.884;8.338;2023-04-25T11:44:56;99993.72;;;10.24;100.00
10881;BME280;5493;48.884;8.338;2023-04-25T11:47:28;99990.56;;;10.09;100.00
10881;BME280;5493;48.884;8.338;2023-04-25T11:50:09;99993.13;;;10.22;100.00
10881;BME280;5493;48.884;8.338;2023-04-25T11:52:40;99986.22;;;10.08;100.00
10881;BME280;5493;48.884;8.338;2023-04-25T11:55:10;100004.56;;;10.17;100.00
10881;BME280;5493;48.884;8.338;2023-04-25T11:57:40;100001.41;;;10.20;100.00
10881;BME280;5493;48.884;8.338;2023-04-25T12:00:09;100009.22;;;10.28;100.00
10881;BME280;5493;48.884;8.338;2023-04-25T12:02:37;100008.63;;;10.26;100.00
10881;BME280;5493;48.884;8.338;2023-04-25T12:05:06;100013.03;;;10.21;100.00
10881;BME280;5493;48.884;8.338;2023-04-25T12:07:34;100011.06;;;10.28;100.00
10881;BME280;5493;48.884;8.338;2023-04-25T12:10:04;100015.88;;;10.26;100.00
10881;BME280;5493;48.884;8.338;2023-04-25T12:12:34;100019.13;;;10.34;100.00
10881;BME280;5493;48.884;8.338;2023-04-25T12:15:09;100020.66;;;10.60;100.00
10881;BME280;5493;48.884;8.338;2023-04-25T12:17:36;100019.06;;;10.71;100.00
10881;BME280;5493;48.884;8.338;2023-04-25T12:20:06;100020.34;;;10.68;100.00
10881;BME280;5493;48.884;8.338;2023-04-25T12:22:34;100020.28;;;10.38;100.00
10881;BME280;5493;48.884;8.338;2023-04-25T12:25:01;100027.31;;;10.58;100.00
10881;BME280;5493;48.884;8.338;2023-04-25T12:27:30;100023.31;;;10.78;100.00
10881;BME280;5493;48.884;8.338;2023-04-25T12:29:59;100033.00;;;10.50;100.00
10881;BME280;5493;48.884;8.338;2023-04-25T12:32:25;100033.38;;;10.35;100.00
10881;BME280;5493;48.884;8.338;2023-04-25T12:34:52;100035.56;;;10.45;100.00
10881;BME280;5493;48.884;8.338;2023-04-25T12:37:19;100038.97;;;10.88;100.00
10881;BME280;5493;48.884;8.338;2023-04-25T12:39:45;100040.19;;;10.92;100.00
10881;BME280;5493;48.884;8.338;2023-04-25T12:42:12;100033.03;;;10.98;100.00
10881;BME280;5493;48.884;8.338;2023-04-25T12:44:38;100050.28;;;11.26;100.00
10881;BME280;5493;48.884;8.338;2023-04-25T12:47:06;100037.81;;;11.25;100.00
10881;BME280;5493;48.884;8.338;2023-04-25T12:49:33;100043.88;;;11.09;100.00
10881;BME280;5493;48.884;8.338;2023-04-25T12:52:00;100040.13;;;11.10;100.00
10881;BME280;5493;48.884;8.338;2023-04-25T12:54:26;100037.88;;;11.07;100.00
10881;BME280;5493;48.884;8.338;2023-04-25T12:56:53;100032.75;;;10.88;100.00
10881;BME280;5493;48.884;8.338;2023-04-25T12:59:20;100044.41;;;11.00;100.00
10881;BME280;5493;48.884;8.338;2023-04-25T13:01:46;100039.84;;;10.70;100.00
10881;BME280;5493;48.884;8.338;2023-04-25T13:04:14;100039.88;;;10.64;100.00